sensor_id;sensor_type;location;lat;lon;timestamp;P1;durP1;ratioP1;P2;durP2;ratioP2
35602;SDS011;21725;50.836;4.368;2023-04-06T00:02:28;17.60;;;9.43;;
35602;SDS011;21725;50.836;4.368;2023-04-06T00:06:57;18.80;;;9.60;;
35602;SDS011;21725;50.836;4.368;2023-04-06T00:10:10;18.13;;;9.95;;
35602;SDS011;21725;50.836;4.368;2023-04-06T00:13:54;20.88;;;11.15;;
35602;SDS011;21725;50.836;4.368;2023-04-06T00:17:50;21.48;;;10.32;;
35602;SDS011;21725;50.836;4.368;2023-04-06T00:37:53;20.48;;;11.68;;
35602;SDS011;21725;50.836;4.368;2023-04-06T00:44:45;15.40;;;9.27;;
35602;SDS011;21725;50.836;4.368;2023-04-06T00:48:20;17.67;;;11.40;;
35602;SDS011;21725;50.836;4.368;2023-04-06T00:52:00;15.40;;;10.05;;
35602;SDS011;21725;50.836;4.368;2023-04-06T00:55:47;17.98;;;9.95;;
35602;SDS011;21725;50.836;4.368;2023-04-06T01:03:08;14.52;;;10.13;;
35602;SDS011;21725;50.836;4.368;2023-04-06T01:26:43;19.77;;;11.43;;
35602;SDS011;21725;50.836;4.368;2023-04-06T01:30:27;18.40;;;11.00;;
35602;SDS011;21725;50.836;4.368;2023-04-06T01:33:55;19.73;;;12.15;;
35602;SDS011;21725;50.836;4.368;2023-04-06T01:37:29;21.95;;;11.35;;
35602;SDS011;21725;50.836;4.368;2023-04-06T01:45:08;21.85;;;12.15;;
35602;SDS011;21725;50.836;4.368;2023-04-06T01:48:35;21.08;;;12.95;;
35602;SDS011;21725;50.836;4.368;2023-04-06T01:51:38;19.80;;;12.38;;
35602;SDS011;21725;50.836;4.368;2023-04-06T01:55:09;17.83;;;11.40;;
35602;SDS011;21725;50.836;4.368;2023-04-06T01:58:42;19.63;;;11.07;;
35602;SDS011;21725;50.836;4.368;2023-04-06T02:02:26;21.48;;;10.90;;
35602;SDS011;21725;50.836;4.368;2023-04-06T02:06:17;17.70;;;10.93;;
35602;SDS011;21725;50.836;4.368;2023-04-06T02:17:24;21.10;;;11.00;;
35602;SDS011;21725;50.836;4.368;2023-04-06T02:32:05;18.52;;;11.43;;
35602;SDS011;21725;50.836;4.368;2023-04-06T02:39:33;15.98;;;10.95;;
35602;SDS011;21725;50.836;4.368;2023-04-06T02:42:36;19.27;;;11.63;;
35602;SDS011;21725;50.836;4.368;2023-04-06T02:46:16;18.48;;;11.57;;
35602;SDS011;21725;50.836;4.368;2023-04-06T02:49:36;21.88;;;11.63;;
35602;SDS011;21725;50.836;4.368;2023-04-06T03:03:56;20.67;;;12.68;;
35602;SDS011;21725;50.836;4.368;2023-04-06T03:14:21;23.17;;;12.20;;
35602;SDS011;21725;50.836;4.368;2023-04-06T03:18:14;19.20;;;11.88;;
35602;SDS011;21725;50.836;4.368;2023-04-06T03:21:25;19.50;;;12.52;;
35602;SDS011;21725;50.836;4.368;2023-04-06T03:37:10;17.85;;;10.98;;
35602;SDS011;21725;50.836;4.368;2023-04-06T03:44:23;16.52;;;11.18;;
35602;SDS011;21725;50.836;4.368;2023-04-06T03:47:29;20.83;;;13.05;;
35602;SDS011;21725;50.836;4.368;2023-04-06T03:54:59;17.48;;;10.63;;
35602;SDS011;21725;50.836;4.368;2023-04-06T03:58:36;20.02;;;12.10;;
35602;SDS011;21725;50.836;4.368;2023-04-06T04:02:00;17.70;;;12.02;;
35602;SDS011;21725;50.836;4.368;2023-04-06T05:44:10;26.10;;;13.88;;
35602;SDS011;21725;50.836;4.368;2023-04-06T05:47:46;24.25;;;13.50;;
35602;SDS011;21725;50.836;4.368;2023-04-06T05:51:38;22.80;;;14.13;;
35602;SDS011;21725;50.836;4.368;2023-04-06T05:55:00;14.93;;;9.10;;
35602;SDS011;21725;50.836;4.368;2023-04-06T05:58:50;23.05;;;13.73;;
35602;SDS011;21725;50.836;4.368;2023-04-06T06:05:20;27.02;;;13.48;;
35602;SDS011;21725;50.836;4.368;2023-04-06T06:21:00;24.95;;;12.80;;
35602;SDS011;21725;50.836;4.368;2023-04-06T06:34:20;22.52;;;13.25;;
35602;SDS011;21725;50.836;4.368;2023-04-06T06:41:01;23.48;;;13.63;;
35602;SDS011;21725;50.836;4.368;2023-04-06T06:44:45;25.27;;;14.48;;
35602;SDS011;21725;50.836;4.368;2023-04-06T06:48:29;22.35;;;14.10;;
35602;SDS011;21725;50.836;4.368;2023-04-06T06:52:35;25.73;;;15.10;;
35602;SDS011;21725;50.836;4.368;2023-04-06T07:22:37;20.75;;;12.70;;
35602;SDS011;21725;50.836;4.368;2023-04-06T07:26:19;17.77;;;11.40;;
35602;SDS011;21725;50.836;4.368;2023-04-06T07:41:35;21.88;;;9.70;;
35602;SDS011;21725;50.836;4.368;2023-04-06T07:48:06;14.57;;;10.10;;
35602;SDS011;21725;50.836;4.368;2023-04-06T07:51:36;17.83;;;9.50;;
35602;SDS011;21725;50.836;4.368;2023-04-06T07:58:55;13.90;;;8.70;;
35602;SDS011;21725;50.836;4.368;2023-04-06T08:05:52;13.90;;;9.52;;
35602;SDS011;21725;50.836;4.368;2023-04-06T08:09:16;15.70;;;8.80;;
35602;SDS011;21725;50.836;4.368;2023-04-06T08:16:31;13.80;;;9.00;;
35602;SDS011;21725;50.836;4.368;2023-04-06T08:20:23;16.55;;;10.05;;
35602;SDS011;21725;50.836;4.368;2023-04-06T08:23:35;17.38;;;9.65;;
35602;SDS011;21725;50.836;4.368;2023-04-06T08:26:46;16.33;;;8.73;;
35602;SDS011;21725;50.836;4.368;2023-04-06T08:30:16;14.60;;;8.60;;
35602;SDS011;21725;50.836;4.368;2023-04-06T08:33:42;14.32;;;9.07;;
35602;SDS011;21725;50.836;4.368;2023-04-06T08:37:05;14.57;;;9.20;;
35602;SDS011;21725;50.836;4.368;2023-04-06T08:40:39;18.15;;;8.60;;
35602;SDS011;21725;50.836;4.368;2023-04-06T08:55:01;13.93;;;7.85;;
35602;SDS011;21725;50.836;4.368;2023-04-06T08:58:26;17.80;;;9.60;;
35602;SDS011;21725;50.836;4.368;2023-04-06T09:06:01;21.88;;;10.63;;
35602;SDS011;21725;50.836;4.368;2023-04-06T09:09:41;15.85;;;10.30;;
35602;SDS011;21725;50.836;4.368;2023-04-06T09:13:15;15.68;;;9.88;;
35602;SDS011;21725;50.836;4.368;2023-04-06T09:16:49;12.93;;;8.75;;
35602;SDS011;21725;50.836;4.368;2023-04-06T09:20:03;17.02;;;11.18;;
35602;SDS011;21725;50.836;4.368;2023-04-06T09:23:57;16.48;;;10.25;;
35602;SDS011;21725;50.836;4.368;2023-04-06T09:42:26;14.07;;;8.48;;
35602;SDS011;21725;50.836;4.368;2023-04-06T09:49:56;14.20;;;9.57;;
35602;SDS011;21725;50.836;4.368;2023-04-06T09:53:38;13.63;;;8.88;;
35602;SDS011;21725;50.836;4.368;2023-04-06T11:54:07;14.47;;;10.30;;
35602;SDS011;21725;50.836;4.368;2023-04-06T11:57:08;15.20;;;10.57;;
35602;SDS011;21725;50.836;4.368;2023-04-06T12:00:20;17.85;;;10.68;;
35602;SDS011;21725;50.836;4.368;2023-04-06T12:03:24;14.77;;;10.02;;
35602;SDS011;21725;50.836;4.368;2023-04-06T12:06:30;11.45;;;8.00;;
35602;SDS011;21725;50.836;4.368;2023-04-06T12:09:33;13.98;;;9.98;;
35602;SDS011;21725;50.836;4.368;2023-04-06T12:12:43;13.85;;;9.73;;
35602;SDS011;21725;50.836;4.368;2023-04-06T12:15:46;16.20;;;10.80;;
35602;SDS011;21725;50.836;4.368;2023-04-06T12:19:07;15.63;;;10.63;;
35602;SDS011;21725;50.836;4.368;2023-04-06T12:22:15;18.00;;;11.05;;
35602;SDS011;21725;50.836;4.368;2023-04-06T12:25:22;16.38;;;11.38;;
35602;SDS011;21725;50.836;4.368;2023-04-06T12:28:23;15.38;;;10.73;;
35602;SDS011;21725;50.836;4.368;2023-04-06T12:31:26;15.35;;;10.77;;
35602;SDS011;21725;50.836;4.368;2023-04-06T12:34:29;16.35;;;9.77;;
35602;SDS011;21725;50.836;4.368;2023-04-06T12:37:32;12.38;;;9.50;;
35602;SDS011;21725;50.836;4.368;2023-04-06T12:40:39;14.75;;;11.35;;
35602;SDS011;21725;50.836;4.368;2023-04-06T12:43:42;14.32;;;10.45;;
35602;SDS011;21725;50.836;4.368;2023-04-06T12:46:56;16.73;;;11.13;;
35602;SDS011;21725;50.836;4.368;2023-04-06T12:50:13;15.20;;;10.77;;
35602;SDS011;21725;50.836;4.368;2023-04-06T12:53:28;13.35;;;9.82;;
35602;SDS011;21725;50.836;4.368;2023-04-06T12:56:37;14.90;;;11.27;;
35602;SDS011;21725;50.836;4.368;2023-04-06T13:03:32;11.85;;;9.38;;
35602;SDS011;21725;50.836;4.368;2023-04-06T13:06:50;11.70;;;9.35;;
35602;SDS011;21725;50.836;4.368;2023-04-06T13:10:20;13.90;;;10.32;;
35602;SDS011;21725;50.836;4.368;2023-04-06T13:17:35;10.27;;;8.23;;
35602;SDS011;21725;50.836;4.368;2023-04-06T13:20:48;13.38;;;9.73;;
35602;SDS011;21725;50.836;4.368;2023-04-06T13:27:16;15.43;;;10.60;;
35602;SDS011;21725;50.836;4.368;2023-04-06T13:30:42;12.88;;;9.88;;
35602;SDS011;21725;50.836;4.368;2023-04-06T13:37:34;14.32;;;11.50;;
35602;SDS011;21725;50.836;4.368;2023-04-06T13:44:44;15.15;;;10.52;;
35602;SDS011;21725;50.836;4.368;2023-04-06T13:51:43;11.57;;;9.65;;
35602;SDS011;21725;50.836;4.368;2023-04-06T13:54:55;14.82;;;11.93;;
35602;SDS011;21725;50.836;4.368;2023-04-06T13:57:58;14.40;;;11.13;;
35602;SDS011;21725;50.836;4.368;2023-04-06T14:01:23;17.92;;;12.73;;
35602;SDS011;21725;50.836;4.368;2023-04-06T14:04:30;22.05;;;10.73;;
35602;SDS011;21725;50.836;4.368;2023-04-06T14:07:44;14.25;;;10.77;;
35602;SDS011;21725;50.836;4.368;2023-04-06T14:10:47;17.55;;;12.18;;
35602;SDS011;21725;50.836;4.368;2023-04-06T14:13:50;15.27;;;11.75;;
35602;SDS011;21725;50.836;4.368;2023-04-06T14:16:54;16.55;;;11.35;;
35602;SDS011;21725;50.836;4.368;2023-04-06T14:19:57;16.63;;;12.63;;
35602;SDS011;21725;50.836;4.368;2023-04-06T14:23:07;17.45;;;11.60;;
35602;SDS011;21725;50.836;4.368;2023-04-06T14:26:08;14.07;;;10.88;;
35602;SDS011;21725;50.836;4.368;2023-04-06T14:29:16;16.00;;;11.65;;
35602;SDS011;21725;50.836;4.368;2023-04-06T14:32:20;15.67;;;12.10;;
35602;SDS011;21725;50.836;4.368;2023-04-06T14:35:25;18.20;;;12.40;;
35602;SDS011;21725;50.836;4.368;2023-04-06T14:38:36;14.45;;;12.02;;
35602;SDS011;21725;50.836;4.368;2023-04-06T14:41:47;19.38;;;11.90;;
35602;SDS011;21725;50.836;4.368;2023-04-06T14:44:48;16.20;;;12.82;;
35602;SDS011;21725;50.836;4.368;2023-04-06T14:47:51;16.55;;;11.05;;
35602;SDS011;21725;50.836;4.368;2023-04-06T14:50:53;20.00;;;13.38;;
35602;SDS011;21725;50.836;4.368;2023-04-06T14:53:55;16.13;;;12.50;;
35602;SDS011;21725;50.836;4.368;2023-04-06T14:56:55;21.90;;;15.18;;
35602;SDS011;21725;50.836;4.368;2023-04-06T15:00:00;16.17;;;12.38;;
35602;SDS011;21725;50.836;4.368;2023-04-06T15:03:01;20.73;;;12.93;;
35602;SDS011;21725;50.836;4.368;2023-04-06T15:06:05;18.73;;;12.73;;
35602;SDS011;21725;50.836;4.368;2023-04-06T15:09:19;17.67;;;13.75;;
35602;SDS011;21725;50.836;4.368;2023-04-06T15:12:30;19.20;;;14.60;;
35602;SDS011;21725;50.836;4.368;2023-04-06T15:15:32;20.90;;;14.30;;
35602;SDS011;21725;50.836;4.368;2023-04-06T15:19:03;21.60;;;13.43;;
35602;SDS011;21725;50.836;4.368;2023-04-06T15:22:21;16.02;;;12.00;;
35602;SDS011;21725;50.836;4.368;2023-04-06T15:25:31;21.15;;;13.30;;
35602;SDS011;21725;50.836;4.368;2023-04-06T15:32:04;18.92;;;12.85;;
35602;SDS011;21725;50.836;4.368;2023-04-06T15:35:28;25.02;;;15.38;;
35602;SDS011;21725;50.836;4.368;2023-04-06T15:38:44;31.98;;;21.30;;
35602;SDS011;21725;50.836;4.368;2023-04-06T15:41:56;36.97;;;22.15;;
35602;SDS011;21725;50.836;4.368;2023-04-06T15:45:00;28.85;;;18.80;;
35602;SDS011;21725;50.836;4.368;2023-04-06T15:48:09;22.73;;;13.55;;
35602;SDS011;21725;50.836;4.368;2023-04-06T15:51:22;16.58;;;12.30;;
35602;SDS011;21725;50.836;4.368;2023-04-06T15:54:26;17.38;;;12.18;;
35602;SDS011;21725;50.836;4.368;2023-04-06T15:57:57;15.23;;;11.45;;
35602;SDS011;21725;50.836;4.368;2023-04-06T16:01:15;18.80;;;12.23;;
35602;SDS011;21725;50.836;4.368;2023-04-06T16:04:19;20.10;;;15.15;;
35602;SDS011;21725;50.836;4.368;2023-04-06T16:41:17;22.00;;;15.02;;
35602;SDS011;21725;50.836;4.368;2023-04-06T16:44:21;19.42;;;11.25;;
35602;SDS011;21725;50.836;4.368;2023-04-06T16:47:22;18.10;;;9.52;;
35602;SDS011;21725;50.836;4.368;2023-04-06T16:50:34;18.83;;;8.63;;
35602;SDS011;21725;50.836;4.368;2023-04-06T16:53:45;16.52;;;9.75;;
35602;SDS011;21725;50.836;4.368;2023-04-06T17:00:07;16.67;;;9.35;;
35602;SDS011;21725;50.836;4.368;2023-04-06T17:03:26;17.02;;;8.05;;
35602;SDS011;21725;50.836;4.368;2023-04-06T17:06:37;19.33;;;7.07;;
35602;SDS011;21725;50.836;4.368;2023-04-06T17:09:40;14.70;;;5.22;;
35602;SDS011;21725;50.836;4.368;2023-04-06T17:12:41;19.67;;;7.05;;
35602;SDS011;21725;50.836;4.368;2023-04-06T17:15:51;23.30;;;5.53;;
35602;SDS011;21725;50.836;4.368;2023-04-06T17:19:19;13.77;;;5.80;;
35602;SDS011;21725;50.836;4.368;2023-04-06T17:22:36;13.60;;;4.95;;
35602;SDS011;21725;50.836;4.368;2023-04-06T17:25:51;15.75;;;6.60;;
35602;SDS011;21725;50.836;4.368;2023-04-06T17:28:53;16.88;;;5.95;;
35602;SDS011;21725;50.836;4.368;2023-04-06T17:32:05;24.48;;;7.43;;
35602;SDS011;21725;50.836;4.368;2023-04-06T17:35:29;12.20;;;4.93;;
35602;SDS011;21725;50.836;4.368;2023-04-06T17:38:30;23.42;;;7.10;;
35602;SDS011;21725;50.836;4.368;2023-04-06T17:41:45;17.52;;;5.22;;
35602;SDS011;21725;50.836;4.368;2023-04-06T17:44:46;19.98;;;6.97;;
35602;SDS011;21725;50.836;4.368;2023-04-06T17:47:48;17.50;;;5.60;;
35602;SDS011;21725;50.836;4.368;2023-04-06T17:50:58;13.73;;;6.00;;
35602;SDS011;21725;50.836;4.368;2023-04-06T17:54:16;18.80;;;7.10;;
35602;SDS011;21725;50.836;4.368;2023-04-06T17:57:24;25.10;;;7.13;;
35602;SDS011;21725;50.836;4.368;2023-04-06T18:00:50;26.27;;;7.43;;
35602;SDS011;21725;50.836;4.368;2023-04-06T18:03:53;24.40;;;7.22;;
35602;SDS011;21725;50.836;4.368;2023-04-06T18:07:01;20.88;;;6.97;;
35602;SDS011;21725;50.836;4.368;2023-04-06T18:10:03;16.67;;;5.93;;
35602;SDS011;21725;50.836;4.368;2023-04-06T18:13:07;23.83;;;8.20;;
35602;SDS011;21725;50.836;4.368;2023-04-06T18:16:08;22.38;;;7.45;;
35602;SDS011;21725;50.836;4.368;2023-04-06T18:19:50;23.02;;;7.95;;
35602;SDS011;21725;50.836;4.368;2023-04-06T18:22:53;17.33;;;6.70;;
35602;SDS011;21725;50.836;4.368;2023-04-06T18:25:54;16.55;;;7.05;;
35602;SDS011;21725;50.836;4.368;2023-04-06T18:28:55;18.70;;;6.43;;
35602;SDS011;21725;50.836;4.368;2023-04-06T18:31:59;19.88;;;8.05;;
35602;SDS011;21725;50.836;4.368;2023-04-06T18:35:02;25.55;;;7.78;;
35602;SDS011;21725;50.836;4.368;2023-04-06T18:38:13;19.17;;;6.00;;
35602;SDS011;21725;50.836;4.368;2023-04-06T18:41:15;23.63;;;8.45;;
35602;SDS011;21725;50.836;4.368;2023-04-06T18:44:16;13.48;;;7.20;;
35602;SDS011;21725;50.836;4.368;2023-04-06T18:47:20;22.17;;;7.65;;
35602;SDS011;21725;50.836;4.368;2023-04-06T18:50:21;16.63;;;6.30;;
35602;SDS011;21725;50.836;4.368;2023-04-06T18:53:31;26.17;;;8.02;;
35602;SDS011;21725;50.836;4.368;2023-04-06T18:56:43;21.70;;;9.43;;
35602;SDS011;21725;50.836;4.368;2023-04-06T18:59:44;18.10;;;7.75;;
35602;SDS011;21725;50.836;4.368;2023-04-06T19:02:48;17.75;;;6.57;;
35602;SDS011;21725;50.836;4.368;2023-04-06T19:06:02;13.32;;;6.70;;
35602;SDS011;21725;50.836;4.368;2023-04-06T19:09:21;11.27;;;5.68;;
35602;SDS011;21725;50.836;4.368;2023-04-06T19:12:28;14.27;;;6.07;;
35602;SDS011;21725;50.836;4.368;2023-04-06T19:15:31;14.07;;;6.30;;
35602;SDS011;21725;50.836;4.368;2023-04-06T19:18:41;13.07;;;6.38;;
35602;SDS011;21725;50.836;4.368;2023-04-06T19:21:44;15.75;;;7.53;;
35602;SDS011;21725;50.836;4.368;2023-04-06T19:24:50;13.75;;;6.45;;
35602;SDS011;21725;50.836;4.368;2023-04-06T19:27:55;11.80;;;5.85;;
35602;SDS011;21725;50.836;4.368;2023-04-06T19:30:59;11.63;;;5.88;;
35602;SDS011;21725;50.836;4.368;2023-04-06T19:34:25;20.15;;;8.30;;
35602;SDS011;21725;50.836;4.368;2023-04-06T19:37:53;13.60;;;6.07;;
35602;SDS011;21725;50.836;4.368;2023-04-06T19:40:54;11.40;;;5.53;;
35602;SDS011;21725;50.836;4.368;2023-04-06T19:43:55;12.95;;;6.30;;
35602;SDS011;21725;50.836;4.368;2023-04-06T19:47:06;20.13;;;6.82;;
35602;SDS011;21725;50.836;4.368;2023-04-06T19:50:27;14.30;;;7.32;;
35602;SDS011;21725;50.836;4.368;2023-04-06T19:53:39;15.73;;;8.18;;
35602;SDS011;21725;50.836;4.368;2023-04-06T19:56:53;16.40;;;8.20;;
35602;SDS011;21725;50.836;4.368;2023-04-06T20:03:27;16.38;;;6.15;;
35602;SDS011;21725;50.836;4.368;2023-04-06T20:06:37;15.02;;;7.03;;
35602;SDS011;21725;50.836;4.368;2023-04-06T20:09:50;12.25;;;7.70;;
35602;SDS011;21725;50.836;4.368;2023-04-06T20:12:56;16.98;;;7.65;;
35602;SDS011;21725;50.836;4.368;2023-04-06T20:16:22;11.05;;;6.43;;
35602;SDS011;21725;50.836;4.368;2023-04-06T20:19:36;11.60;;;6.68;;
35602;SDS011;21725;50.836;4.368;2023-04-06T20:22:54;10.82;;;4.85;;
35602;SDS011;21725;50.836;4.368;2023-04-06T20:26:16;7.50;;;4.25;;
35602;SDS011;21725;50.836;4.368;2023-04-06T20:29:21;6.25;;;3.47;;
35602;SDS011;21725;50.836;4.368;2023-04-06T20:32:28;8.15;;;5.03;;
35602;SDS011;21725;50.836;4.368;2023-04-06T20:35:41;6.38;;;3.80;;
35602;SDS011;21725;50.836;4.368;2023-04-06T20:38:47;10.88;;;4.70;;
35602;SDS011;21725;50.836;4.368;2023-04-06T20:41:50;8.60;;;4.47;;
35602;SDS011;21725;50.836;4.368;2023-04-06T20:44:56;5.78;;;4.10;;
35602;SDS011;21725;50.836;4.368;2023-04-06T20:48:04;9.48;;;4.90;;
35602;SDS011;21725;50.836;4.368;2023-04-06T20:51:36;7.45;;;3.70;;
35602;SDS011;21725;50.836;4.368;2023-04-06T20:54:45;6.90;;;3.72;;
35602;SDS011;21725;50.836;4.368;2023-04-06T20:58:04;5.15;;;3.30;;
35602;SDS011;21725;50.836;4.368;2023-04-06T21:01:23;7.07;;;3.53;;
35602;SDS011;21725;50.836;4.368;2023-04-06T21:04:28;9.98;;;3.70;;
35602;SDS011;21725;50.836;4.368;2023-04-06T21:07:32;8.32;;;4.28;;
35602;SDS011;21725;50.836;4.368;2023-04-06T21:10:33;7.32;;;3.50;;
35602;SDS011;21725;50.836;4.368;2023-04-06T21:13:39;5.45;;;3.75;;
35602;SDS011;21725;50.836;4.368;2023-04-06T21:16:47;4.32;;;2.88;;
35602;SDS011;21725;50.836;4.368;2023-04-06T21:19:48;6.65;;;3.17;;
35602;SDS011;21725;50.836;4.368;2023-04-06T21:22:49;7.20;;;3.08;;
35602;SDS011;21725;50.836;4.368;2023-04-06T21:25:50;5.75;;;2.72;;
35602;SDS011;21725;50.836;4.368;2023-04-06T21:29:03;6.88;;;3.35;;
35602;SDS011;21725;50.836;4.368;2023-04-06T21:32:12;8.02;;;3.60;;
35602;SDS011;21725;50.836;4.368;2023-04-06T21:35:24;6.78;;;3.00;;
35602;SDS011;21725;50.836;4.368;2023-04-06T21:38:30;5.00;;;2.78;;
35602;SDS011;21725;50.836;4.368;2023-04-06T21:41:57;5.22;;;3.28;;
35602;SDS011;21725;50.836;4.368;2023-04-06T21:45:12;5.40;;;3.13;;
35602;SDS011;21725;50.836;4.368;2023-04-06T21:48:13;8.18;;;3.05;;
35602;SDS011;21725;50.836;4.368;2023-04-06T21:51:24;6.03;;;3.35;;
35602;SDS011;21725;50.836;4.368;2023-04-06T21:54:30;6.28;;;3.50;;
35602;SDS011;21725;50.836;4.368;2023-04-06T21:57:37;5.03;;;2.83;;
35602;SDS011;21725;50.836;4.368;2023-04-06T22:00:42;6.47;;;3.53;;
35602;SDS011;21725;50.836;4.368;2023-04-06T22:03:55;8.25;;;4.25;;
35602;SDS011;21725;50.836;4.368;2023-04-06T22:07:02;8.80;;;4.82;;
35602;SDS011;21725;50.836;4.368;2023-04-06T22:58:24;14.18;;;5.75;;
35602;SDS011;21725;50.836;4.368;2023-04-06T23:01:25;9.98;;;5.25;;
35602;SDS011;21725;50.836;4.368;2023-04-06T23:04:33;16.02;;;6.70;;
35602;SDS011;21725;50.836;4.368;2023-04-06T23:07:44;15.27;;;7.65;;
35602;SDS011;21725;50.836;4.368;2023-04-06T23:10:45;15.85;;;5.63;;
35602;SDS011;21725;50.836;4.368;2023-04-06T23:13:58;11.82;;;5.30;;
35602;SDS011;21725;50.836;4.368;2023-04-06T23:17:02;14.80;;;6.60;;
35602;SDS011;21725;50.836;4.368;2023-04-06T23:20:12;18.55;;;6.32;;
35602;SDS011;21725;50.836;4.368;2023-04-06T23:23:23;15.38;;;6.18;;
35602;SDS011;21725;50.836;4.368;2023-04-06T23:26:28;17.95;;;7.90;;
35602;SDS011;21725;50.836;4.368;2023-04-06T23:29:34;16.45;;;6.60;;
35602;SDS011;21725;50.836;4.368;2023-04-06T23:32:38;16.67;;;6.65;;
35602;SDS011;21725;50.836;4.368;2023-04-06T23:35:39;12.82;;;6.65;;
35602;SDS011;21725;50.836;4.368;2023-04-06T23:38:43;12.93;;;6.47;;
35602;SDS011;21725;50.836;4.368;2023-04-06T23:42:02;12.32;;;4.97;;
35602;SDS011;21725;50.836;4.368;2023-04-06T23:45:05;16.67;;;6.78;;
35602;SDS011;21725;50.836;4.368;2023-04-06T23:48:06;16.83;;;7.88;;
35602;SDS011;21725;50.836;4.368;2023-04-06T23:51:07;16.67;;;6.10;;
35602;SDS011;21725;50.836;4.368;2023-04-06T23:54:23;15.88;;;6.75;;
35602;SDS011;21725;50.836;4.368;2023-04-06T23:57:24;13.43;;;7.35;;
